sensor_id;sensor_type;location;lat;lon;timestamp;temperature;humidity
4201;DHT22;2114;50.398;8.814;2023-02-28T00:08:42;1.90;99.90
4201;DHT22;2114;50.398;8.814;2023-02-28T00:13:45;1.90;99.90
4201;DHT22;2114;50.398;8.814;2023-02-28T00:18:49;1.90;99.90
4201;DHT22;2114;50.398;8.814;2023-02-28T00:23:50;1.90;99.90
4201;DHT22;2114;50.398;8.814;2023-02-28T00:28:52;1.80;99.90
4201;DHT22;2114;50.398;8.814;2023-02-28T00:33:53;1.80;99.90
4201;DHT22;2114;50.398;8.814;2023-02-28T00:38:53;1.70;99.90
4201;DHT22;2114;50.398;8.814;2023-02-28T00:43:54;1.50;99.90
4201;DHT22;2114;50.398;8.814;2023-02-28T00:48:54;1.50;99.90
4201;DHT22;2114;50.398;8.814;2023-02-28T00:53:55;1.40;99.90
4201;DHT22;2114;50.398;8.814;2023-02-28T00:58:55;1.30;99.90
4201;DHT22;2114;50.398;8.814;2023-02-28T01:03:56;1.20;99.90
4201;DHT22;2114;50.398;8.814;2023-02-28T01:08:56;1.10;99.90
4201;DHT22;2114;50.398;8.814;2023-02-28T01:13:57;1.00;99.90
4201;DHT22;2114;50.398;8.814;2023-02-28T01:18:58;1.00;99.90
4201;DHT22;2114;50.398;8.814;2023-02-28T01:23:59;0.90;99.90
4201;DHT22;2114;50.398;8.814;2023-02-28T01:28:59;0.80;99.90
4201;DHT22;2114;50.398;8.814;2023-02-28T01:34:00;0.70;99.90
4201;DHT22;2114;50.398;8.814;2023-02-28T01:39:00;0.70;99.90
4201;DHT22;2114;50.398;8.814;2023-02-28T01:44:05;0.60;99.90
4201;DHT22;2114;50.398;8.814;2023-02-28T01:49:14;0.50;99.90
4201;DHT22;2114;50.398;8.814;2023-02-28T01:54:18;0.50;99.90
4201;DHT22;2114;50.398;8.814;2023-02-28T01:59:31;0.50;99.90
4201;DHT22;2114;50.398;8.814;2023-02-28T02:04:46;0.40;99.90
4201;DHT22;2114;50.398;8.814;2023-02-28T02:10:04;0.40;99.90
4201;DHT22;2114;50.398;8.814;2023-02-28T02:15:16;0.40;99.90
4201;DHT22;2114;50.398;8.814;2023-02-28T02:31:36;0.20;99.90
4201;DHT22;2114;50.398;8.814;2023-02-28T02:37:09;0.20;99.90
4201;DHT22;2114;50.398;8.814;2023-02-28T02:42:15;0.20;99.90
4201;DHT22;2114;50.398;8.814;2023-02-28T02:47:23;0.10;99.90
4201;DHT22;2114;50.398;8.814;2023-02-28T02:52:31;0.10;99.90
4201;DHT22;2114;50.398;8.814;2023-02-28T02:57:58;0.10;99.90
4201;DHT22;2114;50.398;8.814;2023-02-28T03:03:01;0.00;99.90
4201;DHT22;2114;50.398;8.814;2023-02-28T03:08:05;0.00;99.90
4201;DHT22;2114;50.398;8.814;2023-02-28T03:35:16;-0.20;99.90
4201;DHT22;2114;50.398;8.814;2023-02-28T03:40:25;-0.20;99.90
4201;DHT22;2114;50.398;8.814;2023-02-28T03:45:33;-0.30;99.90
4201;DHT22;2114;50.398;8.814;2023-02-28T03:50:40;-0.30;99.90
4201;DHT22;2114;50.398;8.814;2023-02-28T03:55:45;-0.40;99.90
4201;DHT22;2114;50.398;8.814;2023-02-28T04:00:54;-0.40;99.90
4201;DHT22;2114;50.398;8.814;2023-02-28T04:05:56;-0.40;99.90
4201;DHT22;2114;50.398;8.814;2023-02-28T04:16:19;-0.50;99.90
4201;DHT22;2114;50.398;8.814;2023-02-28T04:21:20;-0.50;99.90
4201;DHT22;2114;50.398;8.814;2023-02-28T04:26:21;-0.50;99.90
4201;DHT22;2114;50.398;8.814;2023-02-28T04:31:21;-0.60;99.90
4201;DHT22;2114;50.398;8.814;2023-02-28T04:36:22;-0.70;99.90
4201;DHT22;2114;50.398;8.814;2023-02-28T04:41:23;-0.70;99.90
4201;DHT22;2114;50.398;8.814;2023-02-28T04:46:24;-0.80;99.90
4201;DHT22;2114;50.398;8.814;2023-02-28T04:51:24;-0.80;99.90
4201;DHT22;2114;50.398;8.814;2023-02-28T04:56:25;-0.90;99.90
4201;DHT22;2114;50.398;8.814;2023-02-28T05:01:33;-0.90;99.90
4201;DHT22;2114;50.398;8.814;2023-02-28T05:06:35;-0.90;99.90
4201;DHT22;2114;50.398;8.814;2023-02-28T05:11:35;-0.90;99.90
4201;DHT22;2114;50.398;8.814;2023-02-28T05:16:37;-0.90;99.90
4201;DHT22;2114;50.398;8.814;2023-02-28T05:21:48;-1.00;99.90
4201;DHT22;2114;50.398;8.814;2023-02-28T05:26:52;-1.00;99.90
4201;DHT22;2114;50.398;8.814;2023-02-28T05:31:53;-1.00;99.90
4201;DHT22;2114;50.398;8.814;2023-02-28T05:36:53;-1.00;99.90
4201;DHT22;2114;50.398;8.814;2023-02-28T05:41:54;-1.00;99.90
4201;DHT22;2114;50.398;8.814;2023-02-28T05:46:54;-1.00;99.90
4201;DHT22;2114;50.398;8.814;2023-02-28T05:51:55;-1.00;99.90
4201;DHT22;2114;50.398;8.814;2023-02-28T05:56:56;-1.00;99.90
4201;DHT22;2114;50.398;8.814;2023-02-28T06:01:56;-0.90;99.90
4201;DHT22;2114;50.398;8.814;2023-02-28T06:06:57;-0.90;99.90
4201;DHT22;2114;50.398;8.814;2023-02-28T06:12:02;-0.80;99.90
4201;DHT22;2114;50.398;8.814;2023-02-28T06:17:05;-0.70;99.90
4201;DHT22;2114;50.398;8.814;2023-02-28T06:22:06;-0.70;99.90
4201;DHT22;2114;50.398;8.814;2023-02-28T06:27:06;-0.60;99.90
4201;DHT22;2114;50.398;8.814;2023-02-28T06:32:07;-0.60;99.90
4201;DHT22;2114;50.398;8.814;2023-02-28T06:37:08;-0.50;99.90
4201;DHT22;2114;50.398;8.814;2023-02-28T06:42:08;-0.50;99.90
4201;DHT22;2114;50.398;8.814;2023-02-28T06:47:09;-0.40;99.90
4201;DHT22;2114;50.398;8.814;2023-02-28T06:52:09;-0.40;99.90
4201;DHT22;2114;50.398;8.814;2023-02-28T06:57:10;-0.40;99.90
4201;DHT22;2114;50.398;8.814;2023-02-28T07:02:11;-0.40;99.90
4201;DHT22;2114;50.398;8.814;2023-02-28T07:07:11;-0.40;99.90
4201;DHT22;2114;50.398;8.814;2023-02-28T07:12:12;-0.40;99.90
4201;DHT22;2114;50.398;8.814;2023-02-28T07:17:12;-0.40;99.90
4201;DHT22;2114;50.398;8.814;2023-02-28T07:22:13;-0.40;99.90
4201;DHT22;2114;50.398;8.814;2023-02-28T07:27:13;-0.40;99.90
4201;DHT22;2114;50.398;8.814;2023-02-28T07:32:23;-0.30;99.90
4201;DHT22;2114;50.398;8.814;2023-02-28T07:37:24;-0.30;99.90
4201;DHT22;2114;50.398;8.814;2023-02-28T07:42:25;-0.20;99.90
4201;DHT22;2114;50.398;8.814;2023-02-28T07:47:25;-0.10;99.90
4201;DHT22;2114;50.398;8.814;2023-02-28T07:52:26;-0.10;99.90
4201;DHT22;2114;50.398;8.814;2023-02-28T07:57:26;0.00;99.90
4201;DHT22;2114;50.398;8.814;2023-02-28T08:02:27;0.10;99.90
4201;DHT22;2114;50.398;8.814;2023-02-28T08:07:28;0.20;99.90
4201;DHT22;2114;50.398;8.814;2023-02-28T08:12:28;0.30;99.90
4201;DHT22;2114;50.398;8.814;2023-02-28T08:17:29;0.30;99.90
4201;DHT22;2114;50.398;8.814;2023-02-28T08:22:29;0.40;99.90
4201;DHT22;2114;50.398;8.814;2023-02-28T08:27:30;0.40;99.90
4201;DHT22;2114;50.398;8.814;2023-02-28T08:32:32;0.50;99.90
4201;DHT22;2114;50.398;8.814;2023-02-28T08:37:33;0.60;99.90
4201;DHT22;2114;50.398;8.814;2023-02-28T08:42:33;0.70;99.90
4201;DHT22;2114;50.398;8.814;2023-02-28T08:47:34;0.80;99.90
4201;DHT22;2114;50.398;8.814;2023-02-28T08:52:35;0.90;99.90
4201;DHT22;2114;50.398;8.814;2023-02-28T08:57:35;1.10;99.90
4201;DHT22;2114;50.398;8.814;2023-02-28T09:02:36;1.40;99.90
4201;DHT22;2114;50.398;8.814;2023-02-28T09:07:37;1.50;99.90
4201;DHT22;2114;50.398;8.814;2023-02-28T09:12:38;2.00;99.90
4201;DHT22;2114;50.398;8.814;2023-02-28T09:17:38;2.00;99.90
4201;DHT22;2114;50.398;8.814;2023-02-28T09:22:39;2.30;99.90
4201;DHT22;2114;50.398;8.814;2023-02-28T09:27:39;2.70;99.90
4201;DHT22;2114;50.398;8.814;2023-02-28T09:32:40;3.00;99.90
4201;DHT22;2114;50.398;8.814;2023-02-28T09:37:40;3.30;99.90
4201;DHT22;2114;50.398;8.814;2023-02-28T09:42:41;3.70;99.90
4201;DHT22;2114;50.398;8.814;2023-02-28T09:47:45;4.00;99.90
4201;DHT22;2114;50.398;8.814;2023-02-28T09:52:48;4.20;99.90
4201;DHT22;2114;50.398;8.814;2023-02-28T09:57:50;4.50;99.90
4201;DHT22;2114;50.398;8.814;2023-02-28T10:08:14;4.80;99.90
4201;DHT22;2114;50.398;8.814;2023-02-28T10:13:34;5.00;99.90
4201;DHT22;2114;50.398;8.814;2023-02-28T10:23:41;5.50;99.90
4201;DHT22;2114;50.398;8.814;2023-02-28T10:28:45;5.70;99.90
4201;DHT22;2114;50.398;8.814;2023-02-28T10:33:46;5.90;99.90
4201;DHT22;2114;50.398;8.814;2023-02-28T10:38:48;6.00;99.90
4201;DHT22;2114;50.398;8.814;2023-02-28T10:43:49;5.80;99.90
4201;DHT22;2114;50.398;8.814;2023-02-28T10:49:05;5.70;99.90
4201;DHT22;2114;50.398;8.814;2023-02-28T10:54:22;5.50;99.90
4201;DHT22;2114;50.398;8.814;2023-02-28T10:59:30;5.20;99.90
4201;DHT22;2114;50.398;8.814;2023-02-28T11:04:33;5.20;99.90
4201;DHT22;2114;50.398;8.814;2023-02-28T11:09:38;5.10;99.90
4201;DHT22;2114;50.398;8.814;2023-02-28T11:14:52;5.10;99.90
4201;DHT22;2114;50.398;8.814;2023-02-28T11:19:56;5.40;99.90
4201;DHT22;2114;50.398;8.814;2023-02-28T11:25:00;5.70;99.90
4201;DHT22;2114;50.398;8.814;2023-02-28T11:30:02;6.00;99.90
4201;DHT22;2114;50.398;8.814;2023-02-28T11:40:16;6.80;99.90
4201;DHT22;2114;50.398;8.814;2023-02-28T11:45:45;7.00;99.90
4201;DHT22;2114;50.398;8.814;2023-02-28T11:51:02;7.00;99.90
4201;DHT22;2114;50.398;8.814;2023-02-28T11:56:32;6.80;99.90
4201;DHT22;2114;50.398;8.814;2023-02-28T12:01:38;6.80;99.90
4201;DHT22;2114;50.398;8.814;2023-02-28T12:11:55;6.90;99.90
4201;DHT22;2114;50.398;8.814;2023-02-28T12:17:13;6.70;99.90
4201;DHT22;2114;50.398;8.814;2023-02-28T12:22:31;6.30;99.90
4201;DHT22;2114;50.398;8.814;2023-02-28T12:27:40;6.20;99.90
4201;DHT22;2114;50.398;8.814;2023-02-28T12:33:03;6.30;99.90
4201;DHT22;2114;50.398;8.814;2023-02-28T12:38:14;6.60;99.90
4201;DHT22;2114;50.398;8.814;2023-02-28T12:43:19;6.40;99.90
4201;DHT22;2114;50.398;8.814;2023-02-28T12:54:13;6.20;99.90
4201;DHT22;2114;50.398;8.814;2023-02-28T13:04:52;6.10;99.90
4201;DHT22;2114;50.398;8.814;2023-02-28T13:09:58;5.90;99.90
4201;DHT22;2114;50.398;8.814;2023-02-28T13:15:27;5.90;99.90
4201;DHT22;2114;50.398;8.814;2023-02-28T13:20:36;6.00;99.90
4201;DHT22;2114;50.398;8.814;2023-02-28T13:36:31;5.70;99.90
4201;DHT22;2114;50.398;8.814;2023-02-28T13:46:36;5.30;99.90
4201;DHT22;2114;50.398;8.814;2023-02-28T13:51:44;5.20;99.90
4201;DHT22;2114;50.398;8.814;2023-02-28T13:57:20;5.00;99.90
4201;DHT22;2114;50.398;8.814;2023-02-28T14:07:49;4.80;99.90
4201;DHT22;2114;50.398;8.814;2023-02-28T14:18:25;4.70;99.90
4201;DHT22;2114;50.398;8.814;2023-02-28T14:23:30;4.70;99.90
4201;DHT22;2114;50.398;8.814;2023-02-28T14:33:48;4.60;99.90
4201;DHT22;2114;50.398;8.814;2023-02-28T14:39:04;4.60;99.90
4201;DHT22;2114;50.398;8.814;2023-02-28T14:44:19;4.60;99.90
4201;DHT22;2114;50.398;8.814;2023-02-28T14:49:31;4.60;99.90
4201;DHT22;2114;50.398;8.814;2023-02-28T14:54:32;4.60;99.90
4201;DHT22;2114;50.398;8.814;2023-02-28T14:59:35;4.60;99.90
4201;DHT22;2114;50.398;8.814;2023-02-28T15:04:36;4.70;99.90
4201;DHT22;2114;50.398;8.814;2023-02-28T15:09:37;4.70;99.90
4201;DHT22;2114;50.398;8.814;2023-02-28T15:14:38;4.60;99.90
4201;DHT22;2114;50.398;8.814;2023-02-28T15:19:45;4.60;99.90
4201;DHT22;2114;50.398;8.814;2023-02-28T15:24:50;4.60;99.90
4201;DHT22;2114;50.398;8.814;2023-02-28T15:30:00;4.50;99.90
4201;DHT22;2114;50.398;8.814;2023-02-28T15:35:30;4.50;99.90
4201;DHT22;2114;50.398;8.814;2023-02-28T15:45:41;4.30;99.90
4201;DHT22;2114;50.398;8.814;2023-02-28T15:50:48;4.20;99.90
4201;DHT22;2114;50.398;8.814;2023-02-28T15:55:54;4.20;99.90
4201;DHT22;2114;50.398;8.814;2023-02-28T16:01:16;4.40;99.90
4201;DHT22;2114;50.398;8.814;2023-02-28T16:06:46;4.60;99.90
4201;DHT22;2114;50.398;8.814;2023-02-28T16:12:01;4.80;99.90
4201;DHT22;2114;50.398;8.814;2023-02-28T16:17:04;4.80;99.90
4201;DHT22;2114;50.398;8.814;2023-02-28T16:22:05;4.80;99.90
4201;DHT22;2114;50.398;8.814;2023-02-28T16:27:06;4.80;99.90
4201;DHT22;2114;50.398;8.814;2023-02-28T16:32:06;4.80;99.90
4201;DHT22;2114;50.398;8.814;2023-02-28T16:37:12;4.70;99.90
4201;DHT22;2114;50.398;8.814;2023-02-28T16:42:22;4.60;99.90
4201;DHT22;2114;50.398;8.814;2023-02-28T16:47:23;4.50;99.90
4201;DHT22;2114;50.398;8.814;2023-02-28T16:52:23;4.30;99.90
4201;DHT22;2114;50.398;8.814;2023-02-28T16:57:24;4.20;99.90
4201;DHT22;2114;50.398;8.814;2023-02-28T17:02:24;4.10;99.90
4201;DHT22;2114;50.398;8.814;2023-02-28T17:07:25;4.00;99.90
4201;DHT22;2114;50.398;8.814;2023-02-28T17:12:26;3.90;99.90
4201;DHT22;2114;50.398;8.814;2023-02-28T17:17:26;3.80;99.90
4201;DHT22;2114;50.398;8.814;2023-02-28T17:22:28;3.70;99.90
4201;DHT22;2114;50.398;8.814;2023-02-28T17:27:28;3.60;99.90
4201;DHT22;2114;50.398;8.814;2023-02-28T17:32:29;3.50;99.90
4201;DHT22;2114;50.398;8.814;2023-02-28T17:37:29;3.40;99.90
4201;DHT22;2114;50.398;8.814;2023-02-28T17:42:30;3.30;99.90
4201;DHT22;2114;50.398;8.814;2023-02-28T17:47:30;3.20;99.90
4201;DHT22;2114;50.398;8.814;2023-02-28T17:52:31;3.10;99.90
4201;DHT22;2114;50.398;8.814;2023-02-28T17:57:36;3.10;99.90
4201;DHT22;2114;50.398;8.814;2023-02-28T18:02:42;3.00;99.90
4201;DHT22;2114;50.398;8.814;2023-02-28T18:07:43;2.90;99.90
4201;DHT22;2114;50.398;8.814;2023-02-28T18:12:43;2.80;99.90
4201;DHT22;2114;50.398;8.814;2023-02-28T18:17:44;2.80;99.90
4201;DHT22;2114;50.398;8.814;2023-02-28T18:22:44;2.80;99.90
4201;DHT22;2114;50.398;8.814;2023-02-28T18:27:46;2.70;99.90
4201;DHT22;2114;50.398;8.814;2023-02-28T18:33:06;2.60;99.90
4201;DHT22;2114;50.398;8.814;2023-02-28T18:38:13;2.50;99.90
4201;DHT22;2114;50.398;8.814;2023-02-28T18:43:14;2.50;99.90
4201;DHT22;2114;50.398;8.814;2023-02-28T18:48:14;2.40;99.90
4201;DHT22;2114;50.398;8.814;2023-02-28T18:53:16;2.40;99.90
4201;DHT22;2114;50.398;8.814;2023-02-28T18:58:17;2.30;99.90
4201;DHT22;2114;50.398;8.814;2023-02-28T19:03:17;2.20;99.90
4201;DHT22;2114;50.398;8.814;2023-02-28T19:08:19;2.20;99.90
4201;DHT22;2114;50.398;8.814;2023-02-28T19:13:19;2.10;99.90
4201;DHT22;2114;50.398;8.814;2023-02-28T19:18:20;2.10;99.90
4201;DHT22;2114;50.398;8.814;2023-02-28T19:23:21;2.00;99.90
4201;DHT22;2114;50.398;8.814;2023-02-28T19:28:21;2.00;99.90
4201;DHT22;2114;50.398;8.814;2023-02-28T19:33:22;1.90;99.90
4201;DHT22;2114;50.398;8.814;2023-02-28T19:38:23;1.80;99.90
4201;DHT22;2114;50.398;8.814;2023-02-28T19:43:23;1.80;99.90
4201;DHT22;2114;50.398;8.814;2023-02-28T19:48:25;1.70;99.90
4201;DHT22;2114;50.398;8.814;2023-02-28T19:53:29;1.70;99.90
4201;DHT22;2114;50.398;8.814;2023-02-28T19:58:31;1.60;99.90
4201;DHT22;2114;50.398;8.814;2023-02-28T20:03:32;1.60;99.90
4201;DHT22;2114;50.398;8.814;2023-02-28T20:08:33;1.50;99.90
4201;DHT22;2114;50.398;8.814;2023-02-28T20:13:34;1.50;99.90
4201;DHT22;2114;50.398;8.814;2023-02-28T20:18:38;1.40;99.90
4201;DHT22;2114;50.398;8.814;2023-02-28T20:23:40;1.40;99.90
4201;DHT22;2114;50.398;8.814;2023-02-28T20:28:41;1.30;99.90
4201;DHT22;2114;50.398;8.814;2023-02-28T20:33:42;1.30;99.90
4201;DHT22;2114;50.398;8.814;2023-02-28T20:38:43;1.20;99.90
4201;DHT22;2114;50.398;8.814;2023-02-28T20:43:43;1.20;99.90
4201;DHT22;2114;50.398;8.814;2023-02-28T20:48:45;1.20;99.90
4201;DHT22;2114;50.398;8.814;2023-02-28T20:53:45;1.20;99.90
4201;DHT22;2114;50.398;8.814;2023-02-28T20:58:48;1.10;99.90
4201;DHT22;2114;50.398;8.814;2023-02-28T21:03:55;1.00;99.90
4201;DHT22;2114;50.398;8.814;2023-02-28T21:08:57;1.00;99.90
4201;DHT22;2114;50.398;8.814;2023-02-28T21:13:59;0.90;99.90
4201;DHT22;2114;50.398;8.814;2023-02-28T21:19:00;0.90;99.90
4201;DHT22;2114;50.398;8.814;2023-02-28T21:24:05;0.90;99.90
4201;DHT22;2114;50.398;8.814;2023-02-28T21:29:05;0.80;99.90
4201;DHT22;2114;50.398;8.814;2023-02-28T21:34:07;0.70;99.90
4201;DHT22;2114;50.398;8.814;2023-02-28T21:39:21;0.70;99.90
4201;DHT22;2114;50.398;8.814;2023-02-28T21:44:31;0.70;99.90
4201;DHT22;2114;50.398;8.814;2023-02-28T21:49:31;0.60;99.90
4201;DHT22;2114;50.398;8.814;2023-02-28T21:54:32;0.60;99.90
4201;DHT22;2114;50.398;8.814;2023-02-28T21:59:32;0.60;99.90
4201;DHT22;2114;50.398;8.814;2023-02-28T22:04:33;0.50;99.90
4201;DHT22;2114;50.398;8.814;2023-02-28T22:09:33;0.50;99.90
4201;DHT22;2114;50.398;8.814;2023-02-28T22:14:34;0.50;99.90
4201;DHT22;2114;50.398;8.814;2023-02-28T22:19:35;0.50;99.90
4201;DHT22;2114;50.398;8.814;2023-02-28T22:24:36;0.50;99.90
4201;DHT22;2114;50.398;8.814;2023-02-28T22:29:36;0.40;99.90
4201;DHT22;2114;50.398;8.814;2023-02-28T22:34:37;0.40;99.90
4201;DHT22;2114;50.398;8.814;2023-02-28T22:39:37;0.40;99.90
4201;DHT22;2114;50.398;8.814;2023-02-28T22:44:38;0.40;99.90
4201;DHT22;2114;50.398;8.814;2023-02-28T22:49:40;0.40;99.90
4201;DHT22;2114;50.398;8.814;2023-02-28T22:54:40;0.30;99.90
4201;DHT22;2114;50.398;8.814;2023-02-28T22:59:41;0.20;99.90
4201;DHT22;2114;50.398;8.814;2023-02-28T23:04:41;0.30;99.90
4201;DHT22;2114;50.398;8.814;2023-02-28T23:09:42;0.30;99.90
4201;DHT22;2114;50.398;8.814;2023-02-28T23:14:43;0.30;99.90
4201;DHT22;2114;50.398;8.814;2023-02-28T23:19:43;0.30;99.90
4201;DHT22;2114;50.398;8.814;2023-02-28T23:24:44;0.30;99.90
4201;DHT22;2114;50.398;8.814;2023-02-28T23:29:44;0.20;99.90
4201;DHT22;2114;50.398;8.814;2023-02-28T23:34:45;0.20;99.90
4201;DHT22;2114;50.398;8.814;2023-02-28T23:39:45;0.20;99.90
4201;DHT22;2114;50.398;8.814;2023-02-28T23:44:46;0.10;99.90
4201;DHT22;2114;50.398;8.814;2023-02-28T23:49:46;0.10;99.90
4201;DHT22;2114;50.398;8.814;2023-02-28T23:54:47;0.10;99.90
4201;DHT22;2114;50.398;8.814;2023-02-28T23:59:48;0.10;99.90
